createdAt,value
2022-08-05T00:00:18.442Z,97993.13
2022-08-05T00:02:50.707Z,97986.34
2022-08-05T00:06:03.154Z,97984.78
2022-08-05T00:08:34.090Z,97984.41
2022-08-05T00:10:53.749Z,97989.78
2022-08-05T00:13:20.678Z,97988.34
2022-08-05T00:16:06.316Z,97987.59
2022-08-05T00:18:36.000Z,97989.00
2022-08-05T00:21:06.896Z,97985.75
2022-08-05T00:23:45.939Z,97990.88
2022-08-05T00:26:20.306Z,97984.09
2022-08-05T00:28:47.029Z,97982.25
2022-08-05T00:31:16.529Z,97978.75
2022-08-05T00:34:54.019Z,97991.03
2022-08-05T00:37:11.598Z,97985.34
2022-08-05T00:39:44.471Z,97979.13
2022-08-05T00:42:35.484Z,97984.06
2022-08-05T00:45:08.887Z,97981.34
2022-08-05T00:47:56.434Z,97980.28
2022-08-05T00:50:25.173Z,97984.94
2022-08-05T00:52:53.284Z,97982.19
2022-08-05T00:55:20.179Z,97980.56
2022-08-05T00:59:42.006Z,97981.38
2022-08-05T01:02:11.555Z,97978.38
2022-08-05T01:04:38.161Z,97986.00
2022-08-05T01:07:08.892Z,97987.94
2022-08-05T01:09:41.962Z,97985.47
2022-08-05T01:12:18.639Z,97975.66
2022-08-05T01:14:58.499Z,97972.94
2022-08-05T01:17:39.947Z,97978.38
2022-08-05T01:20:27.114Z,97971.31
2022-08-05T01:23:23.385Z,97969.13
2022-08-05T01:26:18.678Z,97966.72
2022-08-05T01:29:00.599Z,97967.28
2022-08-05T01:32:00.680Z,97968.91
2022-08-05T01:34:48.564Z,97966.19
2022-08-05T01:37:25.593Z,97953.97
2022-08-05T01:39:58.978Z,97955.56
2022-08-05T01:42:27.918Z,97955.56
2022-08-05T01:44:59.817Z,97965.88
2022-08-05T01:47:38.779Z,97962.34
2022-08-05T01:50:15.182Z,97962.59
2022-08-05T01:52:45.339Z,97963.09
2022-08-05T01:55:20.795Z,97960.34
2022-08-05T01:58:10.037Z,97960.34
2022-08-05T02:00:38.383Z,97955.19
2022-08-05T02:03:28.961Z,97952.72
2022-08-05T02:06:33.522Z,97962.28
2022-08-05T02:08:58.241Z,97954.09
2022-08-05T02:11:32.742Z,97950.25
2022-08-05T02:14:12.506Z,97945.63
2022-08-05T02:16:46.706Z,97946.66
2022-08-05T02:19:34.540Z,97935.44
2022-08-05T02:22:25.733Z,97931.88
2022-08-05T02:25:02.148Z,97940.47
2022-08-05T02:27:59.850Z,97931.72
2022-08-05T02:30:21.530Z,97935.69
2022-08-05T02:32:53.144Z,97933.47
2022-08-05T02:35:27.698Z,97931.22
2022-08-05T02:37:56.891Z,97926.00
2022-08-05T02:40:27.525Z,97921.63
2022-08-05T02:42:55.220Z,97918.38
2022-08-05T02:45:24.393Z,97920.50
2022-08-05T02:48:07.375Z,97922.38
2022-08-05T02:50:43.816Z,97928.25
2022-08-05T02:53:18.629Z,97920.66
2022-08-05T02:55:52.065Z,97923.06
2022-08-05T03:00:41.206Z,97919.06
2022-08-05T03:03:34.147Z,97915.88
2022-08-05T03:06:56.938Z,97916.81
2022-08-05T03:12:10.778Z,97912.41
2022-08-05T03:14:46.019Z,97904.56
2022-08-05T03:17:18.176Z,97906.75
2022-08-05T03:20:10.537Z,97905.44
2022-08-05T03:25:02.324Z,97898.41
2022-08-05T03:26:37.607Z,97894.34
2022-08-05T03:29:12.230Z,97899.50
2022-08-05T03:31:55.699Z,97890.50
2022-08-05T03:34:36.145Z,97889.66
2022-08-05T03:37:07.867Z,97888.22
2022-08-05T03:39:47.167Z,97889.25
2022-08-05T03:42:41.570Z,97891.97
2022-08-05T03:46:04.855Z,97893.00
2022-08-05T03:48:46.897Z,97890.84
2022-08-05T03:52:39.422Z,97882.19
2022-08-05T03:55:49.904Z,97888.19
2022-08-05T03:57:41.667Z,97879.31
2022-08-05T04:00:15.531Z,97878.53
2022-08-05T04:02:58.006Z,97889.75
2022-08-05T04:05:42.963Z,97880.22
2022-08-05T04:08:29.986Z,97875.38
2022-08-05T04:11:10.329Z,97879.19
2022-08-05T04:14:18.270Z,97881.38
2022-08-05T04:17:05.428Z,97885.22
2022-08-05T04:19:54.445Z,97884.72
2022-08-05T04:22:44.882Z,97880.66
2022-08-05T04:25:57.371Z,97892.94
2022-08-05T04:28:38.256Z,97884.50
2022-08-05T04:31:21.749Z,97887.81
2022-08-05T04:34:31.619Z,97890.81
2022-08-05T04:36:45.729Z,97873.97
2022-08-05T04:39:16.811Z,97885.41
2022-08-05T04:41:43.751Z,97895.50
2022-08-05T04:44:12.457Z,97890.59
2022-08-05T04:46:39.442Z,97889.22
2022-08-05T04:49:12.233Z,97887.59
2022-08-05T04:51:45.027Z,97882.41
2022-08-05T04:54:11.987Z,97884.84
2022-08-05T04:56:42.453Z,97887.41
2022-08-05T05:02:06.685Z,97885.53
2022-08-05T05:04:20.311Z,97875.13
2022-08-05T05:06:49.277Z,97885.31
2022-08-05T05:09:18.699Z,97889.59
2022-08-05T05:11:53.162Z,97885.50
2022-08-05T05:14:27.776Z,97897.38
2022-08-05T05:16:59.182Z,97893.72
2022-08-05T05:19:27.409Z,97902.53
2022-08-05T05:22:22.782Z,97900.44
2022-08-05T05:24:58.958Z,97894.81
2022-08-05T05:27:45.950Z,97901.50
2022-08-05T05:30:29.445Z,97909.25
2022-08-05T05:33:08.988Z,97909.50
2022-08-05T05:35:44.985Z,97904.66
2022-08-05T05:38:13.207Z,97901.75
2022-08-05T05:40:48.283Z,97902.03
2022-08-05T05:43:54.483Z,97904.50
2022-08-05T05:46:15.814Z,97903.78
2022-08-05T05:48:44.793Z,97916.09
2022-08-05T05:51:18.610Z,97914.09
2022-08-05T05:53:46.095Z,97905.06
2022-08-05T05:56:26.102Z,97911.06
2022-08-05T05:59:03.143Z,97916.16
2022-08-05T06:01:37.811Z,97908.69
2022-08-05T06:04:07.634Z,97903.91
2022-08-05T06:06:35.104Z,97903.38
2022-08-05T06:09:07.526Z,97899.09
2022-08-05T06:11:34.882Z,97893.53
2022-08-05T06:14:06.473Z,97897.59
2022-08-05T06:16:36.898Z,97894.94
2022-08-05T06:19:05.728Z,97900.81
2022-08-05T06:21:35.875Z,97901.84
2022-08-05T06:24:11.750Z,97903.16
2022-08-05T06:26:39.159Z,97900.31
2022-08-05T06:29:06.959Z,97913.22
2022-08-05T06:31:52.955Z,97907.88
2022-08-05T06:34:20.271Z,97909.03
2022-08-05T06:36:57.583Z,97908.69
2022-08-05T06:39:27.373Z,97910.03
2022-08-05T06:41:57.327Z,97908.66
2022-08-05T06:44:25.373Z,97904.13
2022-08-05T06:46:52.808Z,97900.00
2022-08-05T06:49:39.173Z,97907.69
2022-08-05T06:52:08.038Z,97898.91
2022-08-05T06:54:54.715Z,97895.13
2022-08-05T06:58:03.026Z,97891.94
2022-08-05T07:02:45.247Z,97890.75
2022-08-05T07:05:14.466Z,97891.75
2022-08-05T07:07:49.006Z,97893.97
2022-08-05T07:10:16.293Z,97896.09
2022-08-05T07:13:01.893Z,97897.72
2022-08-05T07:16:01.789Z,97899.81
2022-08-05T07:18:32.219Z,97894.88
2022-08-05T07:21:04.731Z,97889.66
2022-08-05T07:23:32.718Z,97893.56
2022-08-05T07:25:59.349Z,97894.72
2022-08-05T07:28:26.397Z,97900.94
2022-08-05T07:30:55.039Z,97895.66
2022-08-05T07:33:36.813Z,97889.91
2022-08-05T07:36:20.315Z,97893.78
2022-08-05T07:38:48.951Z,97901.28
2022-08-05T07:42:09.595Z,97896.56
2022-08-05T07:44:06.823Z,97900.28
2022-08-05T07:46:41.256Z,97886.00
2022-08-05T07:49:14.822Z,97888.09
2022-08-05T07:51:53.938Z,97888.03
2022-08-05T07:54:26.746Z,97885.75
2022-08-05T07:57:13.903Z,97884.47
2022-08-05T07:59:43.802Z,97884.78
2022-08-05T08:02:15.656Z,97884.22
2022-08-05T08:04:46.182Z,97883.38
2022-08-05T08:07:13.853Z,97890.53
2022-08-05T08:09:40.859Z,97893.00
2022-08-05T08:12:33.507Z,97896.66
2022-08-05T08:14:54.349Z,97888.78
2022-08-05T08:17:21.685Z,97881.53
2022-08-05T08:20:21.789Z,97884.16
2022-08-05T08:22:35.782Z,97883.47
2022-08-05T08:25:03.769Z,97890.06
2022-08-05T08:27:31.489Z,97888.50
2022-08-05T08:30:30.137Z,97872.84
2022-08-05T08:32:58.307Z,97873.28
2022-08-05T08:35:35.188Z,97878.47
2022-08-05T08:38:08.700Z,97880.00
2022-08-05T08:40:47.790Z,97878.69
2022-08-05T08:45:17.147Z,97877.81
2022-08-05T08:46:10.038Z,97880.28
2022-08-05T08:49:07.796Z,97886.09
2022-08-05T08:52:03.249Z,97890.31
2022-08-05T08:54:27.532Z,97882.84
2022-08-05T08:56:54.377Z,97884.56
2022-08-05T08:59:27.618Z,97881.78
2022-08-05T09:03:45.042Z,97869.88
2022-08-05T09:06:16.979Z,97876.81
2022-08-05T09:08:45.727Z,97883.59
2022-08-05T09:11:13.985Z,97868.38
2022-08-05T09:14:09.214Z,97886.78
2022-08-05T09:16:28.626Z,97870.94
2022-08-05T09:18:56.165Z,97872.09
2022-08-05T09:22:17.911Z,97871.13
2022-08-05T09:24:15.430Z,97875.34
2022-08-05T09:26:43.652Z,97869.31
2022-08-05T09:29:10.864Z,97864.81
2022-08-05T09:32:46.102Z,97862.72
2022-08-05T09:34:50.045Z,97865.19
2022-08-05T09:37:18.160Z,97860.69
2022-08-05T09:40:05.279Z,97861.25
2022-08-05T09:42:41.297Z,97865.91
2022-08-05T09:46:05.045Z,97871.44
2022-08-05T09:47:56.763Z,97863.75
2022-08-05T09:50:38.660Z,97851.03
2022-08-05T09:53:14.175Z,97856.75
2022-08-05T09:56:03.776Z,97851.84
2022-08-05T09:58:31.153Z,97842.09
2022-08-05T10:01:13.725Z,97848.09
2022-08-05T10:03:59.575Z,97850.31
2022-08-05T10:06:28.033Z,97850.19
2022-08-05T10:08:56.519Z,97852.34
2022-08-05T10:11:23.477Z,97851.41
2022-08-05T10:13:54.404Z,97849.94
2022-08-05T10:16:32.225Z,97837.97
2022-08-05T10:19:01.801Z,97847.94
2022-08-05T10:21:40.351Z,97833.59
2022-08-05T10:24:10.712Z,97836.72
2022-08-05T10:26:49.093Z,97824.28
2022-08-05T10:29:24.154Z,97828.94
2022-08-05T10:32:52.278Z,97824.91
2022-08-05T10:35:00.881Z,97821.06
2022-08-05T10:37:44.375Z,97815.63
2022-08-05T10:40:38.960Z,97815.13
2022-08-05T10:43:36.278Z,97811.00
2022-08-05T10:46:09.151Z,97809.31
2022-08-05T10:48:57.356Z,97813.97
2022-08-05T10:51:28.818Z,97810.59
2022-08-05T10:54:01.618Z,97803.97
2022-08-05T10:56:45.687Z,97802.91
2022-08-05T11:00:01.849Z,97804.44
2022-08-05T11:04:55.746Z,97802.00
2022-08-05T11:07:32.792Z,97808.88
2022-08-05T11:10:03.996Z,97811.25
2022-08-05T11:12:42.334Z,97802.28
2022-08-05T11:15:21.297Z,97797.44
2022-08-05T11:18:00.417Z,97804.53
2022-08-05T11:20:38.954Z,97792.34
2022-08-05T11:24:05.602Z,97792.91
2022-08-05T11:26:28.886Z,97783.03
2022-08-05T11:29:11.860Z,97788.59
2022-08-05T11:31:56.648Z,97789.75
2022-08-05T11:34:37.704Z,97790.22
2022-08-05T11:37:06.284Z,97794.97
2022-08-05T11:40:00.340Z,97780.44
2022-08-05T11:42:38.060Z,97780.97
2022-08-05T11:45:23.548Z,97780.88
2022-08-05T11:47:55.404Z,97785.47
2022-08-05T11:50:22.866Z,97778.56
2022-08-05T11:52:53.224Z,97777.31
2022-08-05T11:55:24.073Z,97776.78
2022-08-05T11:58:09.968Z,97781.06
2022-08-05T12:00:39.031Z,97784.38
2022-08-05T12:03:28.429Z,97770.31
2022-08-05T12:06:06.373Z,97775.09
2022-08-05T12:08:54.254Z,97761.91
2022-08-05T12:11:28.272Z,97764.41
2022-08-05T12:14:10.882Z,97761.75
2022-08-05T12:16:40.221Z,97774.00
2022-08-05T12:20:17.247Z,97767.38
2022-08-05T12:21:59.007Z,97763.34
2022-08-05T12:24:28.017Z,97752.16
2022-08-05T12:26:55.178Z,97759.31
2022-08-05T12:29:26.055Z,97749.91
2022-08-05T12:32:01.711Z,97749.81
2022-08-05T12:34:32.779Z,97744.66
2022-08-05T12:37:07.539Z,97757.25
2022-08-05T12:39:38.492Z,97757.34
2022-08-05T12:42:14.988Z,97754.03
2022-08-05T12:44:43.019Z,97760.59
2022-08-05T12:47:12.470Z,97760.13
2022-08-05T12:50:03.201Z,97761.75
2022-08-05T12:52:38.891Z,97755.38
2022-08-05T12:55:26.860Z,97752.06
2022-08-05T12:58:38.291Z,97749.66
2022-08-05T13:02:00.355Z,97748.75
2022-08-05T13:05:37.799Z,97753.84
2022-08-05T13:08:05.223Z,97749.66
2022-08-05T13:10:48.781Z,97731.72
2022-08-05T13:14:05.024Z,97743.72
2022-08-05T13:16:12.572Z,97750.91
2022-08-05T13:18:57.578Z,97733.00
2022-08-05T13:21:27.800Z,97734.25
2022-08-05T13:23:55.554Z,97728.94
2022-08-05T13:26:29.878Z,97729.94
2022-08-05T13:28:57.650Z,97732.28
2022-08-05T13:31:34.053Z,97730.75
2022-08-05T13:34:23.365Z,97734.34
2022-08-05T13:36:52.588Z,97731.81
2022-08-05T13:40:13.613Z,97723.06
2022-08-05T13:42:06.055Z,97720.19
2022-08-05T13:44:32.758Z,97720.91
2022-08-05T13:47:08.688Z,97722.06
2022-08-05T13:49:35.997Z,97723.22
2022-08-05T13:52:12.155Z,97718.22
2022-08-05T13:54:39.396Z,97715.88
2022-08-05T13:57:06.566Z,97716.25
2022-08-05T13:59:33.545Z,97709.34
2022-08-05T14:02:06.484Z,97709.81
2022-08-05T14:05:04.736Z,97709.44
2022-08-05T14:08:00.228Z,97704.16
2022-08-05T14:10:29.022Z,97709.00
2022-08-05T14:12:58.745Z,97700.59
2022-08-05T14:16:09.178Z,97699.44
2022-08-05T14:18:17.773Z,97703.69
2022-08-05T14:20:47.878Z,97701.31
2022-08-05T14:23:19.210Z,97706.13
2022-08-05T14:25:54.281Z,97706.31
2022-08-05T14:28:26.216Z,97692.69
2022-08-05T14:30:53.941Z,97697.38
2022-08-05T14:33:22.643Z,97695.94
2022-08-05T14:35:51.778Z,97693.88
2022-08-05T14:38:32.094Z,97705.31
2022-08-05T14:41:06.304Z,97699.34
2022-08-05T14:43:57.620Z,97700.84
2022-08-05T14:46:20.895Z,97698.16
2022-08-05T14:48:49.996Z,97703.00
2022-08-05T14:51:18.770Z,97700.16
2022-08-05T14:54:06.604Z,97700.84
2022-08-05T14:56:34.426Z,97701.13
2022-08-05T14:59:04.981Z,97697.09
2022-08-05T15:01:48.752Z,97695.50
2022-08-05T15:06:31.835Z,97683.88
2022-08-05T15:09:03.561Z,97681.75
2022-08-05T15:11:52.527Z,97680.88
2022-08-05T15:14:34.734Z,97673.28
2022-08-05T15:17:09.789Z,97679.88
2022-08-05T15:19:48.940Z,97675.88
2022-08-05T15:22:16.145Z,97671.81
2022-08-05T15:24:44.239Z,97663.16
2022-08-05T15:27:11.416Z,97659.13
2022-08-05T15:29:42.022Z,97661.00
2022-08-05T15:32:09.086Z,97662.88
2022-08-05T15:34:35.705Z,97667.09
2022-08-05T15:37:06.982Z,97662.16
2022-08-05T15:41:00.015Z,97658.91
2022-08-05T15:42:55.103Z,97661.69
2022-08-05T15:45:15.311Z,97671.91
2022-08-05T15:47:43.751Z,97669.47
2022-08-05T15:50:15.411Z,97663.13
2022-08-05T15:52:52.621Z,97665.09
2022-08-05T15:55:24.497Z,97653.19
2022-08-05T15:57:52.128Z,97653.66
2022-08-05T16:00:26.460Z,97659.91
2022-08-05T16:03:07.019Z,97660.63
2022-08-05T16:05:33.869Z,97660.84
2022-08-05T16:08:00.831Z,97667.00
2022-08-05T16:10:27.855Z,97663.94
2022-08-05T16:12:56.325Z,97668.13
2022-08-05T16:15:23.605Z,97673.13
2022-08-05T16:17:57.826Z,97674.63
2022-08-05T16:20:25.606Z,97665.66
2022-08-05T16:22:54.647Z,97665.44
2022-08-05T16:25:21.270Z,97666.88
2022-08-05T16:28:05.174Z,97659.47
2022-08-05T16:30:34.372Z,97652.91
2022-08-05T16:33:03.106Z,97655.94
2022-08-05T16:35:33.541Z,97653.75
2022-08-05T16:38:23.787Z,97654.34
2022-08-05T16:40:55.447Z,97649.75
2022-08-05T16:43:28.605Z,97648.28
2022-08-05T16:46:03.762Z,97646.09
2022-08-05T16:48:35.980Z,97648.28
2022-08-05T16:51:03.959Z,97645.59
2022-08-05T16:54:06.201Z,97642.50
2022-08-05T16:56:25.148Z,97643.78
2022-08-05T16:58:52.129Z,97642.59
2022-08-05T17:01:19.321Z,97641.59
2022-08-05T17:03:46.394Z,97636.97
2022-08-05T17:18:01.900Z,97646.06
2022-08-05T17:20:28.737Z,97645.00
2022-08-05T17:22:57.533Z,97647.72
2022-08-05T17:25:39.221Z,97652.50
2022-08-05T17:28:06.367Z,97657.94
2022-08-05T17:30:34.410Z,97657.41
2022-08-05T17:33:09.472Z,97658.03
2022-08-05T17:36:08.944Z,97658.28
2022-08-05T17:38:27.369Z,97667.13
2022-08-05T17:40:53.941Z,97664.59
2022-08-05T17:43:46.590Z,97665.31
2022-08-05T17:46:12.803Z,97665.22
2022-08-05T17:48:40.288Z,97662.00
2022-08-05T17:51:10.082Z,97667.56
2022-08-05T17:53:42.506Z,97665.19
2022-08-05T17:56:09.613Z,97662.25
2022-08-05T17:58:40.315Z,97656.13
2022-08-05T18:01:09.755Z,97661.34
2022-08-05T18:06:29.219Z,97673.84
2022-08-05T18:08:57.613Z,97671.13
2022-08-05T18:11:32.626Z,97670.44
2022-08-05T18:14:07.474Z,97669.94
2022-08-05T18:16:51.516Z,97671.41
2022-08-05T18:19:19.088Z,97676.88
2022-08-05T18:22:09.086Z,97669.41
2022-08-05T18:24:37.831Z,97674.50
2022-08-05T18:27:18.126Z,97666.38
2022-08-05T18:29:48.250Z,97663.75
2022-08-05T18:32:20.435Z,97661.78
2022-08-05T18:34:55.056Z,97666.22
2022-08-05T18:37:34.535Z,97655.03
2022-08-05T18:40:34.157Z,97666.44
2022-08-05T18:42:58.095Z,97665.25
2022-08-05T18:45:24.988Z,97663.31
2022-08-05T18:48:11.907Z,97668.09
2022-08-05T18:52:06.917Z,97670.59
2022-08-05T18:53:50.857Z,97684.88
2022-08-05T18:56:17.600Z,97683.31
2022-08-05T18:58:51.064Z,97677.53
2022-08-05T19:01:47.669Z,97676.97
2022-08-05T19:04:12.370Z,97681.38
2022-08-05T19:08:39.411Z,97683.31
2022-08-05T19:11:07.644Z,97679.50
2022-08-05T19:13:36.172Z,97683.97
2022-08-05T19:16:04.546Z,97686.19
2022-08-05T19:18:32.222Z,97687.19
2022-08-05T19:20:59.869Z,97691.16
2022-08-05T19:24:06.524Z,97698.16
2022-08-05T19:26:18.651Z,97691.53
2022-08-05T19:28:48.789Z,97694.47
2022-08-05T19:31:19.548Z,97695.78
2022-08-05T19:33:56.054Z,97689.09
2022-08-05T19:36:25.034Z,97688.88
2022-08-05T19:38:53.071Z,97697.09
2022-08-05T19:41:22.139Z,97690.16
2022-08-05T19:44:13.533Z,97701.72
2022-08-05T19:46:40.970Z,97703.50
2022-08-05T19:49:16.969Z,97699.84
2022-08-05T19:52:09.062Z,97705.91
2022-08-05T19:54:38.026Z,97695.00
2022-08-05T19:57:09.654Z,97693.69
2022-08-05T20:00:00.619Z,97695.69
2022-08-05T20:02:32.330Z,97695.53
2022-08-05T20:04:59.990Z,97702.94
2022-08-05T20:07:47.363Z,97697.28
2022-08-05T20:10:15.906Z,97706.59
2022-08-05T20:12:47.866Z,97711.00
2022-08-05T20:15:52.347Z,97693.72
2022-08-05T20:18:33.583Z,97694.69
2022-08-05T20:21:06.485Z,97696.38
2022-08-05T20:23:39.472Z,97702.94
2022-08-05T20:26:18.054Z,97696.25
2022-08-05T20:29:05.035Z,97695.47
2022-08-05T20:31:42.005Z,97703.19
2022-08-05T20:34:19.276Z,97698.34
2022-08-05T20:36:49.067Z,97698.13
2022-08-05T20:39:17.120Z,97692.41
2022-08-05T20:41:47.694Z,97703.31
2022-08-05T20:44:29.463Z,97695.25
2022-08-05T20:47:07.779Z,97699.84
2022-08-05T20:49:39.426Z,97689.28
2022-08-05T20:52:07.442Z,97697.53
2022-08-05T20:54:59.947Z,97688.59
2022-08-05T20:57:43.319Z,97691.97
2022-08-05T21:00:54.411Z,97695.63
2022-08-05T21:03:21.793Z,97691.63
2022-08-05T21:05:55.519Z,97695.25
2022-08-05T21:09:53.383Z,97696.41
2022-08-05T21:12:20.658Z,97698.06
2022-08-05T21:14:47.287Z,97690.81
2022-08-05T21:17:13.989Z,97690.56
2022-08-05T21:19:46.570Z,97693.88
2022-08-05T21:22:23.279Z,97702.84
2022-08-05T21:24:52.373Z,97699.91
2022-08-05T21:27:24.805Z,97702.38
2022-08-05T21:29:57.167Z,97692.31
2022-08-05T21:32:28.467Z,97696.13
2022-08-05T21:35:17.919Z,97686.06
2022-08-05T21:37:47.040Z,97692.59
2022-08-05T21:40:14.404Z,97690.69
2022-08-05T21:42:45.234Z,97686.59
2022-08-05T21:45:17.623Z,97685.22
2022-08-05T21:47:56.432Z,97681.41
2022-08-05T21:50:26.397Z,97680.78
2022-08-05T21:52:53.955Z,97684.56
2022-08-05T21:56:01.197Z,97680.25
2022-08-05T21:58:19.349Z,97679.44
2022-08-05T22:00:51.068Z,97679.75
2022-08-05T22:03:18.377Z,97685.28
2022-08-05T22:06:06.438Z,97683.41
2022-08-05T22:08:35.163Z,97684.47
2022-08-05T22:11:01.964Z,97680.94
2022-08-05T22:14:18.108Z,97678.94
2022-08-05T22:16:40.497Z,97685.69
2022-08-05T22:19:15.121Z,97693.31
2022-08-05T22:21:54.036Z,97688.09
2022-08-05T22:24:52.095Z,97699.66
2022-08-05T22:28:08.220Z,97689.91
2022-08-05T22:30:32.309Z,97700.22
2022-08-05T22:33:02.704Z,97700.72
2022-08-05T22:35:38.611Z,97701.34
2022-08-05T22:38:15.768Z,97690.47
2022-08-05T22:40:49.807Z,97696.63
2022-08-05T22:43:17.202Z,97695.41
2022-08-05T22:46:12.290Z,97695.47
2022-08-05T22:48:41.886Z,97686.28
2022-08-05T22:51:15.975Z,97691.34
2022-08-05T22:53:49.824Z,97690.25
2022-08-05T22:56:17.646Z,97689.97
2022-08-05T22:59:00.118Z,97666.47
2022-08-05T23:01:50.657Z,97689.19
2022-08-05T23:04:16.774Z,97691.44
2022-08-05T23:06:43.432Z,97680.88
2022-08-05T23:10:35.788Z,97690.66
2022-08-05T23:13:08.552Z,97688.94
2022-08-05T23:15:36.358Z,97687.81
2022-08-05T23:18:06.179Z,97692.69
2022-08-05T23:20:38.760Z,97682.75
2022-08-05T23:23:08.165Z,97690.34
2022-08-05T23:25:51.862Z,97680.53
2022-08-05T23:28:21.377Z,97673.69
2022-08-05T23:30:54.056Z,97671.47
2022-08-05T23:34:03.155Z,97676.97
2022-08-05T23:36:10.611Z,97678.88
2022-08-05T23:38:37.781Z,97672.88
2022-08-05T23:41:04.876Z,97680.81
2022-08-05T23:44:04.797Z,97675.81
2022-08-05T23:46:19.814Z,97681.91
2022-08-05T23:48:59.751Z,97670.97
2022-08-05T23:51:54.142Z,97672.50
2022-08-05T23:54:30.341Z,97675.25
2022-08-05T23:57:06.958Z,97674.63
